createdAt,value
2023-02-06T00:02:10.493Z,34.30
2023-02-06T00:05:15.218Z,39.00
2023-02-06T00:08:18.655Z,43.60
2023-02-06T00:11:23.871Z,35.70
2023-02-06T00:14:27.613Z,40.20
2023-02-06T00:17:36.534Z,38.20
2023-02-06T00:20:42.992Z,36.80
2023-02-06T00:23:48.155Z,37.00
2023-02-06T00:27:00.664Z,35.30
2023-02-06T00:30:05.975Z,38.40
2023-02-06T00:33:09.385Z,38.90
2023-02-06T00:36:32.686Z,35.50
2023-02-06T00:39:37.588Z,38.70
2023-02-06T00:42:44.569Z,34.70
2023-02-06T00:45:53.635Z,34.30
2023-02-06T00:49:05.013Z,37.40
2023-02-06T00:52:09.790Z,38.80
2023-02-06T00:55:13.922Z,35.20
2023-02-06T00:58:17.439Z,37.00
2023-02-06T01:01:22.294Z,37.50
2023-02-06T01:04:27.994Z,38.10
2023-02-06T01:07:31.955Z,39.50
2023-02-06T01:10:37.556Z,35.90
2023-02-06T01:13:41.917Z,36.90
2023-02-06T01:16:49.762Z,39.10
2023-02-06T01:20:04.481Z,38.20
2023-02-06T01:23:19.911Z,38.10
2023-02-06T01:26:28.302Z,36.50
2023-02-06T01:29:38.092Z,41.30
2023-02-06T01:32:51.356Z,41.80
2023-02-06T01:36:15.226Z,34.90
2023-02-06T01:39:19.891Z,34.50
2023-02-06T01:42:26.796Z,39.90
2023-02-06T01:45:38.238Z,34.40
2023-02-06T01:49:02.430Z,36.10
2023-02-06T01:52:31.687Z,34.10
2023-02-06T01:55:47.111Z,34.60
2023-02-06T01:59:14.089Z,37.20
2023-02-06T02:02:22.653Z,31.40
2023-02-06T02:05:27.399Z,33.30
2023-02-06T02:08:49.017Z,39.10
2023-02-06T02:11:53.858Z,33.40
2023-02-06T02:15:00.161Z,31.40
2023-02-06T02:18:14.643Z,31.70
2023-02-06T02:21:36.397Z,32.50
2023-02-06T02:25:24.805Z,31.80
2023-02-06T02:29:00.103Z,32.80
2023-02-06T02:32:53.369Z,32.80
2023-02-06T02:36:05.069Z,28.70
2023-02-06T02:39:57.384Z,29.00
2023-02-06T02:43:52.681Z,30.10
2023-02-06T02:47:00.986Z,29.70
2023-02-06T02:50:10.396Z,29.50
2023-02-06T02:53:21.902Z,30.90
2023-02-06T02:56:45.146Z,27.80
2023-02-06T02:59:50.941Z,30.50
2023-02-06T03:03:00.640Z,29.10
2023-02-06T03:06:49.328Z,30.60
2023-02-06T03:10:07.295Z,29.30
2023-02-06T03:13:31.930Z,27.70
2023-02-06T03:17:11.851Z,28.10
2023-02-06T03:20:17.354Z,27.70
2023-02-06T03:23:26.122Z,32.60
2023-02-06T03:26:53.389Z,29.10
2023-02-06T03:30:03.146Z,32.10
2023-02-06T03:33:12.022Z,33.40
2023-02-06T03:36:18.440Z,31.40
2023-02-06T03:39:27.981Z,27.90
2023-02-06T03:42:53.655Z,28.60
2023-02-06T03:46:20.314Z,28.20
2023-02-06T03:49:31.911Z,28.90
2023-02-06T03:52:45.643Z,28.20
2023-02-06T03:55:56.893Z,31.90
2023-02-06T03:59:01.848Z,29.50
2023-02-06T04:02:06.180Z,32.00
2023-02-06T04:05:10.358Z,33.60
2023-02-06T04:08:14.292Z,32.80
2023-02-06T04:11:39.559Z,40.90
2023-02-06T04:14:51.740Z,39.60
2023-02-06T04:18:01.792Z,39.40
2023-02-06T04:21:07.222Z,36.50
2023-02-06T04:24:31.991Z,37.20
2023-02-06T04:27:42.018Z,36.30
2023-02-06T04:30:48.989Z,37.00
2023-02-06T04:37:05.856Z,40.70
2023-02-06T04:40:13.262Z,38.90
2023-02-06T04:43:17.022Z,35.60
2023-02-06T04:46:20.227Z,37.90
2023-02-06T04:49:39.914Z,42.10
2023-02-06T04:52:53.016Z,50.80
2023-02-06T04:56:15.365Z,40.90
2023-02-06T04:59:35.489Z,41.90
2023-02-06T05:02:54.123Z,34.00
2023-02-06T05:06:10.389Z,36.80
2023-02-06T05:09:13.460Z,38.90
2023-02-06T05:12:36.536Z,40.40
2023-02-06T05:16:11.750Z,37.10
2023-02-06T05:19:43.653Z,50.10
2023-02-06T05:23:16.465Z,44.80
2023-02-06T05:26:41.525Z,61.40
2023-02-06T05:30:07.759Z,57.00
2023-02-06T05:33:33.706Z,46.40
2023-02-06T05:37:04.247Z,48.70
2023-02-06T05:40:09.770Z,39.60
2023-02-06T05:43:12.638Z,48.60
2023-02-06T05:46:28.481Z,44.40
2023-02-06T05:49:51.597Z,37.90
2023-02-06T05:53:02.146Z,38.40
2023-02-06T05:56:12.644Z,37.70
2023-02-06T05:59:36.544Z,37.10
2023-02-06T06:02:55.096Z,37.20
2023-02-06T06:06:08.397Z,46.10
2023-02-06T06:09:31.735Z,37.30
2023-02-06T06:13:03.518Z,41.20
2023-02-06T06:16:20.083Z,37.80
2023-02-06T06:19:29.618Z,45.40
2023-02-06T06:22:37.166Z,56.70
2023-02-06T06:26:01.785Z,57.00
2023-02-06T06:29:04.798Z,58.60
2023-02-06T06:32:10.667Z,57.50
2023-02-06T06:35:14.049Z,68.10
2023-02-06T06:38:34.571Z,52.80
2023-02-06T06:41:42.068Z,55.10
2023-02-06T06:45:00.358Z,56.80
2023-02-06T06:48:23.594Z,58.80
2023-02-06T06:51:46.222Z,61.60
2023-02-06T06:54:51.952Z,64.40
2023-02-06T06:58:11.565Z,63.90
2023-02-06T07:01:49.448Z,69.50
2023-02-06T07:04:55.374Z,70.80
2023-02-06T07:07:59.171Z,60.30
2023-02-06T07:11:05.005Z,26.90
2023-02-06T07:14:09.189Z,23.10
2023-02-06T07:17:14.272Z,17.30
2023-02-06T07:20:26.752Z,27.80
2023-02-06T07:23:33.917Z,25.50
2023-02-06T07:26:36.958Z,29.80
2023-02-06T07:29:40.028Z,44.90
2023-02-06T07:32:47.463Z,50.70
2023-02-06T07:35:52.693Z,53.30
2023-02-06T07:39:02.385Z,51.80
2023-02-06T07:42:06.668Z,53.90
2023-02-06T07:45:30.069Z,52.50
2023-02-06T07:48:34.656Z,52.40
2023-02-06T07:51:40.434Z,42.60
2023-02-06T07:54:45.566Z,48.90
2023-02-06T07:57:56.398Z,32.20
2023-02-06T08:01:06.360Z,32.70
2023-02-06T08:04:13.501Z,45.50
2023-02-06T08:07:26.080Z,51.00
2023-02-06T08:10:33.283Z,40.70
2023-02-06T08:14:05.138Z,37.00
2023-02-06T08:17:08.157Z,41.60
2023-02-06T08:20:17.169Z,47.40
2023-02-06T08:23:24.610Z,50.60
2023-02-06T08:26:30.343Z,47.20
2023-02-06T08:29:44.283Z,44.80
2023-02-06T08:33:08.430Z,40.60
2023-02-06T08:36:28.123Z,35.50
2023-02-06T08:39:32.774Z,35.30
2023-02-06T08:42:56.335Z,38.10
2023-02-06T08:46:02.555Z,35.90
2023-02-06T08:52:13.393Z,33.40
2023-02-06T08:55:17.153Z,31.00
2023-02-06T08:58:25.680Z,25.90
2023-02-06T09:01:32.119Z,24.80
2023-02-06T09:04:37.893Z,27.10
2023-02-06T09:07:42.735Z,24.90
2023-02-06T09:10:47.727Z,26.90
2023-02-06T09:13:54.605Z,27.10
2023-02-06T09:16:58.557Z,25.90
2023-02-06T09:20:02.637Z,25.70
2023-02-06T09:23:13.830Z,22.10
2023-02-06T09:26:20.526Z,20.80
2023-02-06T09:29:27.191Z,24.50
2023-02-06T09:32:30.821Z,24.90
2023-02-06T09:35:35.240Z,27.10
2023-02-06T09:38:51.970Z,32.40
2023-02-06T09:42:11.312Z,26.40
2023-02-06T09:45:22.939Z,22.90
2023-02-06T09:48:32.975Z,23.90
2023-02-06T09:52:16.796Z,26.50
2023-02-06T09:56:07.071Z,26.80
2023-02-06T09:59:43.026Z,20.40
2023-02-06T10:03:30.137Z,21.00
2023-02-06T10:06:54.396Z,20.20
2023-02-06T10:11:05.100Z,16.70
2023-02-06T10:14:55.134Z,16.80
2023-02-06T10:18:12.925Z,16.30
2023-02-06T10:21:39.394Z,15.60
2023-02-06T10:25:02.186Z,15.90
2023-02-06T10:28:29.189Z,13.90
2023-02-06T10:32:02.492Z,15.90
2023-02-06T10:35:44.045Z,13.80
2023-02-06T10:39:08.083Z,12.10
2023-02-06T10:42:29.368Z,12.90
2023-02-06T10:45:43.909Z,16.40
2023-02-06T10:48:54.400Z,16.60
2023-02-06T10:52:20.331Z,10.90
2023-02-06T10:55:36.761Z,11.60
2023-02-06T10:58:51.648Z,14.00
2023-02-06T11:02:19.418Z,8.10
2023-02-06T11:05:50.505Z,18.90
2023-02-06T11:08:58.099Z,20.50
2023-02-06T11:12:03.914Z,14.30
2023-02-06T11:15:49.901Z,11.30
2023-02-06T11:19:16.126Z,13.60
2023-02-06T11:22:47.727Z,11.20
2023-02-06T11:26:15.379Z,12.70
2023-02-06T11:29:45.794Z,11.80
2023-02-06T11:33:17.158Z,11.70
2023-02-06T11:36:43.853Z,13.30
2023-02-06T11:39:49.997Z,11.90
2023-02-06T11:43:16.360Z,16.10
2023-02-06T11:46:35.374Z,12.50
2023-02-06T11:49:47.950Z,13.30
2023-02-06T11:53:11.362Z,14.20
2023-02-06T11:56:24.235Z,14.20
2023-02-06T11:59:56.246Z,13.60
2023-02-06T12:03:03.751Z,15.30
2023-02-06T12:06:18.971Z,13.10
2023-02-06T12:09:50.846Z,11.80
2023-02-06T12:13:17.389Z,15.30
2023-02-06T12:16:25.916Z,14.00
2023-02-06T12:19:58.813Z,15.40
2023-02-06T12:23:53.191Z,15.30
2023-02-06T12:27:15.209Z,15.60
2023-02-06T12:30:58.118Z,21.50
2023-02-06T12:34:22.198Z,14.70
2023-02-06T12:37:52.356Z,8.10
2023-02-06T12:41:33.019Z,14.30
2023-02-06T12:44:57.190Z,9.80
2023-02-06T12:48:36.782Z,16.00
2023-02-06T12:52:39.814Z,10.20
2023-02-06T12:56:13.647Z,11.00
2023-02-06T12:59:43.719Z,11.20
2023-02-06T13:03:32.917Z,8.50
2023-02-06T13:07:27.488Z,10.60
2023-02-06T13:10:31.303Z,10.70
2023-02-06T13:13:47.576Z,10.50
2023-02-06T13:17:19.042Z,13.00
2023-02-06T13:21:54.255Z,10.80
2023-02-06T13:25:06.979Z,10.20
2023-02-06T13:28:42.396Z,11.40
2023-02-06T13:32:12.622Z,11.40
2023-02-06T13:35:54.941Z,12.20
2023-02-06T13:39:36.403Z,11.30
2023-02-06T13:43:36.284Z,13.50
2023-02-06T13:47:44.965Z,11.50
2023-02-06T13:50:56.461Z,15.40
2023-02-06T13:54:59.103Z,11.00
2023-02-06T13:58:41.496Z,8.00
2023-02-06T14:02:50.141Z,12.10
2023-02-06T14:15:10.540Z,13.30
2023-02-06T14:18:47.477Z,14.50
2023-02-06T14:22:42.583Z,8.00
2023-02-06T14:27:09.166Z,9.20
2023-02-06T14:31:21.935Z,9.80
2023-02-06T14:35:10.028Z,9.70
2023-02-06T14:39:22.952Z,10.20
2023-02-06T14:43:20.501Z,9.00
2023-02-06T14:46:43.735Z,7.00
2023-02-06T14:50:08.787Z,3.20
2023-02-06T14:54:01.195Z,8.40
2023-02-06T14:57:24.206Z,5.10
2023-02-06T15:00:48.287Z,6.30
2023-02-06T15:04:23.723Z,10.70
2023-02-06T15:07:38.707Z,9.20
2023-02-06T15:10:59.401Z,6.80
2023-02-06T15:15:44.572Z,16.30
2023-02-06T15:19:30.952Z,7.40
2023-02-06T15:23:32.847Z,8.20
2023-02-06T15:27:53.520Z,14.30
2023-02-06T15:31:23.461Z,9.10
2023-02-06T15:35:09.186Z,4.50
2023-02-06T15:38:32.613Z,13.90
2023-02-06T15:42:03.732Z,11.20
2023-02-06T15:45:16.446Z,12.00
2023-02-06T15:49:19.099Z,3.90
2023-02-06T15:52:42.400Z,6.30
2023-02-06T15:56:29.343Z,12.20
2023-02-06T16:00:23.928Z,12.30
2023-02-06T16:03:37.223Z,12.50
2023-02-06T16:07:32.668Z,10.40
2023-02-06T16:11:56.826Z,4.70
2023-02-06T16:15:39.107Z,15.20
2023-02-06T16:19:42.665Z,16.00
2023-02-06T16:23:47.321Z,16.00
2023-02-06T16:27:18.933Z,9.40
2023-02-06T16:31:34.558Z,19.10
2023-02-06T16:34:55.765Z,8.20
2023-02-06T16:38:19.563Z,6.80
2023-02-06T16:41:54.226Z,7.70
2023-02-06T16:45:41.315Z,10.00
2023-02-06T16:49:19.312Z,7.00
2023-02-06T16:53:18.782Z,15.50
2023-02-06T16:56:42.590Z,19.20
2023-02-06T17:00:08.938Z,18.70
2023-02-06T17:03:34.162Z,15.00
2023-02-06T17:07:13.659Z,25.40
2023-02-06T17:10:38.831Z,20.80
2023-02-06T17:14:05.807Z,15.10
2023-02-06T17:17:31.006Z,28.10
2023-02-06T17:20:59.664Z,25.60
2023-02-06T17:24:27.329Z,25.60
2023-02-06T17:28:06.766Z,14.50
2023-02-06T17:31:33.811Z,4.90
2023-02-06T17:34:57.989Z,12.20
2023-02-06T17:38:24.012Z,29.10
2023-02-06T17:41:47.270Z,28.10
2023-02-06T17:45:21.658Z,31.70
2023-02-06T17:49:05.053Z,26.20
2023-02-06T17:52:25.284Z,23.70
2023-02-06T17:55:51.107Z,28.20
2023-02-06T17:59:20.914Z,22.20
2023-02-06T18:03:03.849Z,25.90
2023-02-06T18:06:47.808Z,26.80
2023-02-06T18:10:19.561Z,43.90
2023-02-06T18:13:49.359Z,34.60
2023-02-06T18:17:31.380Z,31.40
2023-02-06T18:20:58.003Z,26.00
2023-02-06T18:24:29.822Z,27.40
2023-02-06T18:27:55.217Z,29.60
2023-02-06T18:35:07.643Z,24.80
2023-02-06T18:38:51.922Z,23.70
2023-02-06T18:42:35.328Z,23.10
2023-02-06T18:46:02.052Z,24.60
2023-02-06T18:49:28.150Z,34.10
2023-02-06T18:52:52.181Z,36.00
2023-02-06T18:56:33.937Z,40.30
2023-02-06T19:00:04.004Z,42.20
2023-02-06T19:03:33.613Z,43.60
2023-02-06T19:06:53.570Z,39.80
2023-02-06T19:10:39.755Z,39.60
2023-02-06T19:14:06.169Z,33.60
2023-02-06T19:17:49.980Z,38.00
2023-02-06T19:25:14.711Z,35.20
2023-02-06T19:28:39.583Z,37.30
2023-02-06T19:32:04.295Z,41.30
2023-02-06T19:35:23.699Z,35.80
2023-02-06T19:38:49.416Z,35.70
2023-02-06T19:42:19.947Z,34.70
2023-02-06T19:45:40.416Z,34.20
2023-02-06T19:49:32.210Z,37.70
2023-02-06T19:52:59.143Z,32.80
2023-02-06T19:56:56.388Z,36.50
2023-02-06T20:00:30.329Z,42.80
2023-02-06T20:03:48.706Z,38.20
2023-02-06T20:07:13.779Z,34.10
2023-02-06T20:10:38.410Z,40.60
2023-02-06T20:14:05.430Z,40.60
2023-02-06T20:17:30.740Z,39.50
2023-02-06T20:20:50.013Z,41.70
2023-02-06T20:24:34.256Z,29.10
2023-02-06T20:28:14.088Z,9.40
2023-02-06T20:31:41.031Z,35.60
2023-02-06T20:35:31.959Z,33.00
2023-02-06T20:38:57.039Z,30.70
2023-02-06T20:42:28.847Z,27.00
2023-02-06T20:45:53.004Z,30.00
2023-02-06T20:49:43.422Z,25.00
2023-02-06T20:53:08.769Z,33.80
2023-02-06T20:56:35.640Z,29.80
2023-02-06T20:59:59.757Z,37.90
2023-02-06T21:03:25.653Z,35.60
2023-02-06T21:06:53.766Z,29.30
2023-02-06T21:10:36.704Z,27.80
2023-02-06T21:14:03.289Z,29.90
2023-02-06T21:17:28.815Z,20.80
2023-02-06T21:21:11.631Z,27.70
2023-02-06T21:24:46.347Z,24.30
2023-02-06T21:28:17.678Z,18.10
2023-02-06T21:31:48.611Z,24.60
2023-02-06T21:35:16.537Z,22.30
2023-02-06T21:39:03.930Z,18.90
2023-02-06T21:42:13.439Z,27.10
2023-02-06T21:45:40.173Z,22.50
2023-02-06T21:49:24.219Z,25.00
2023-02-06T21:52:42.863Z,23.90
2023-02-06T21:56:10.408Z,24.00
2023-02-06T21:59:34.683Z,30.60
2023-02-06T22:02:59.947Z,30.80
2023-02-06T22:12:51.153Z,23.00
2023-02-06T22:16:15.439Z,21.70
2023-02-06T22:19:40.491Z,25.80
2023-02-06T22:23:08.037Z,30.80
2023-02-06T22:26:47.314Z,26.20
2023-02-06T22:30:12.979Z,29.40
2023-02-06T22:34:05.553Z,29.10
2023-02-06T22:37:50.922Z,26.20
2023-02-06T22:41:37.141Z,30.30
2023-02-06T22:45:03.611Z,32.90
2023-02-06T22:48:23.085Z,30.80
2023-02-06T22:51:46.311Z,32.30
2023-02-06T22:55:09.568Z,36.00
2023-02-06T22:58:34.926Z,36.30
2023-02-06T23:02:17.930Z,40.60
2023-02-06T23:17:49.866Z,24.10
2023-02-06T23:21:23.871Z,30.60
2023-02-06T23:24:36.822Z,35.50
2023-02-06T23:28:00.833Z,32.70
2023-02-06T23:31:44.620Z,30.50
2023-02-06T23:35:08.010Z,31.30
2023-02-06T23:38:31.148Z,30.50
2023-02-06T23:41:54.323Z,34.80
2023-02-06T23:45:17.673Z,31.00
2023-02-06T23:48:35.451Z,27.70
2023-02-06T23:52:11.875Z,32.70
